sensor_id;sensor_type;location;lat;lon;timestamp;temperature;humidity
41435;DHT22;27177;22.262;114.192;2022-10-22T00:00:51;20.90;99.90
41435;DHT22;27177;22.262;114.192;2022-10-22T00:03:19;21.00;99.90
41435;DHT22;27177;22.262;114.192;2022-10-22T00:05:46;21.00;99.90
41435;DHT22;27177;22.262;114.192;2022-10-22T00:08:13;21.00;99.90
41435;DHT22;27177;22.262;114.192;2022-10-22T00:10:41;21.10;99.90
41435;DHT22;27177;22.262;114.192;2022-10-22T00:13:07;21.10;99.90
41435;DHT22;27177;22.262;114.192;2022-10-22T00:15:34;21.20;99.90
41435;DHT22;27177;22.262;114.192;2022-10-22T00:18:01;21.30;99.90
41435;DHT22;27177;22.262;114.192;2022-10-22T00:20:27;21.40;99.90
41435;DHT22;27177;22.262;114.192;2022-10-22T00:22:54;21.50;99.90
41435;DHT22;27177;22.262;114.192;2022-10-22T00:25:21;21.60;99.90
41435;DHT22;27177;22.262;114.192;2022-10-22T00:27:47;21.80;99.90
41435;DHT22;27177;22.262;114.192;2022-10-22T00:30:14;21.90;99.90
41435;DHT22;27177;22.262;114.192;2022-10-22T00:32:41;21.90;99.90
41435;DHT22;27177;22.262;114.192;2022-10-22T00:35:07;22.00;99.90
41435;DHT22;27177;22.262;114.192;2022-10-22T00:37:34;22.00;99.90
41435;DHT22;27177;22.262;114.192;2022-10-22T00:40:01;22.10;99.90
41435;DHT22;27177;22.262;114.192;2022-10-22T00:42:28;22.20;99.90
41435;DHT22;27177;22.262;114.192;2022-10-22T00:48:05;22.40;99.90
41435;DHT22;27177;22.262;114.192;2022-10-22T00:51:04;22.60;99.90
41435;DHT22;27177;22.262;114.192;2022-10-22T00:53:44;22.70;99.90
41435;DHT22;27177;22.262;114.192;2022-10-22T00:56:13;22.90;99.90
41435;DHT22;27177;22.262;114.192;2022-10-22T00:58:46;23.00;99.90
41435;DHT22;27177;22.262;114.192;2022-10-22T01:01:17;23.10;99.90
41435;DHT22;27177;22.262;114.192;2022-10-22T01:03:46;23.20;99.90
41435;DHT22;27177;22.262;114.192;2022-10-22T01:06:20;23.30;99.90
41435;DHT22;27177;22.262;114.192;2022-10-22T01:17:17;23.70;99.90
41435;DHT22;27177;22.262;114.192;2022-10-22T01:20:08;23.80;99.90
41435;DHT22;27177;22.262;114.192;2022-10-22T01:22:48;23.90;99.90
41435;DHT22;27177;22.262;114.192;2022-10-22T01:25:30;24.00;99.90
41435;DHT22;27177;22.262;114.192;2022-10-22T01:28:16;24.00;99.90
41435;DHT22;27177;22.262;114.192;2022-10-22T01:30:45;24.10;99.90
41435;DHT22;27177;22.262;114.192;2022-10-22T01:33:16;24.20;99.90
41435;DHT22;27177;22.262;114.192;2022-10-22T01:35:44;24.20;99.90
41435;DHT22;27177;22.262;114.192;2022-10-22T01:38:17;24.20;99.90
41435;DHT22;27177;22.262;114.192;2022-10-22T01:40:45;24.30;99.90
41435;DHT22;27177;22.262;114.192;2022-10-22T01:43:13;24.40;99.90
41435;DHT22;27177;22.262;114.192;2022-10-22T01:45:49;24.40;99.90
41435;DHT22;27177;22.262;114.192;2022-10-22T01:51:14;24.60;99.90
41435;DHT22;27177;22.262;114.192;2022-10-22T01:53:53;24.60;99.90
41435;DHT22;27177;22.262;114.192;2022-10-22T02:02:32;24.80;99.90
41435;DHT22;27177;22.262;114.192;2022-10-22T02:05:20;24.80;99.90
41435;DHT22;27177;22.262;114.192;2022-10-22T02:08:02;24.90;99.90
41435;DHT22;27177;22.262;114.192;2022-10-22T02:10:31;25.00;99.90
41435;DHT22;27177;22.262;114.192;2022-10-22T02:12:59;25.10;99.90
41435;DHT22;27177;22.262;114.192;2022-10-22T02:15:28;25.20;99.90
41435;DHT22;27177;22.262;114.192;2022-10-22T02:17:57;25.30;99.90
41435;DHT22;27177;22.262;114.192;2022-10-22T02:20:28;25.40;99.90
41435;DHT22;27177;22.262;114.192;2022-10-22T02:22:56;25.60;99.90
41435;DHT22;27177;22.262;114.192;2022-10-22T02:25:25;25.60;99.90
41435;DHT22;27177;22.262;114.192;2022-10-22T02:28:15;25.80;99.90
41435;DHT22;27177;22.262;114.192;2022-10-22T02:30:49;25.90;99.90
41435;DHT22;27177;22.262;114.192;2022-10-22T02:33:27;26.00;99.90
41435;DHT22;27177;22.262;114.192;2022-10-22T02:35:55;26.10;99.90
41435;DHT22;27177;22.262;114.192;2022-10-22T02:38:23;26.20;99.90
41435;DHT22;27177;22.262;114.192;2022-10-22T02:40:50;26.20;99.90
41435;DHT22;27177;22.262;114.192;2022-10-22T02:43:18;26.30;99.20
41435;DHT22;27177;22.262;114.192;2022-10-22T02:45:45;26.40;99.80
41435;DHT22;27177;22.262;114.192;2022-10-22T02:48:12;26.40;99.40
41435;DHT22;27177;22.262;114.192;2022-10-22T02:50:38;26.50;99.70
41435;DHT22;27177;22.262;114.192;2022-10-22T02:53:05;26.50;99.40
41435;DHT22;27177;22.262;114.192;2022-10-22T02:55:32;26.50;99.10
41435;DHT22;27177;22.262;114.192;2022-10-22T02:57:58;26.50;99.30
41435;DHT22;27177;22.262;114.192;2022-10-22T03:00:25;26.60;99.10
41435;DHT22;27177;22.262;114.192;2022-10-22T03:02:52;26.70;98.90
41435;DHT22;27177;22.262;114.192;2022-10-22T03:05:19;26.80;98.80
41435;DHT22;27177;22.262;114.192;2022-10-22T03:07:45;26.80;98.90
41435;DHT22;27177;22.262;114.192;2022-10-22T03:10:12;26.90;98.70
41435;DHT22;27177;22.262;114.192;2022-10-22T03:12:39;27.00;98.50
41435;DHT22;27177;22.262;114.192;2022-10-22T03:15:06;27.10;98.40
41435;DHT22;27177;22.262;114.192;2022-10-22T03:17:32;27.20;98.60
41435;DHT22;27177;22.262;114.192;2022-10-22T03:19:59;27.30;98.30
41435;DHT22;27177;22.262;114.192;2022-10-22T03:22:31;27.30;97.90
41435;DHT22;27177;22.262;114.192;2022-10-22T03:25:05;27.40;97.70
41435;DHT22;27177;22.262;114.192;2022-10-22T03:27:35;27.40;96.80
41435;DHT22;27177;22.262;114.192;2022-10-22T03:30:03;27.40;96.40
41435;DHT22;27177;22.262;114.192;2022-10-22T03:32:30;27.40;96.10
41435;DHT22;27177;22.262;114.192;2022-10-22T03:34:56;27.40;95.90
41435;DHT22;27177;22.262;114.192;2022-10-22T03:37:24;27.30;96.60
41435;DHT22;27177;22.262;114.192;2022-10-22T03:39:52;27.20;96.30
41435;DHT22;27177;22.262;114.192;2022-10-22T03:42:20;27.20;96.40
41435;DHT22;27177;22.262;114.192;2022-10-22T03:44:47;27.10;96.30
41435;DHT22;27177;22.262;114.192;2022-10-22T03:47:15;27.10;96.80
41435;DHT22;27177;22.262;114.192;2022-10-22T03:49:42;27.10;97.20
41435;DHT22;27177;22.262;114.192;2022-10-22T03:52:12;27.00;96.80
41435;DHT22;27177;22.262;114.192;2022-10-22T03:54:39;27.10;97.30
41435;DHT22;27177;22.262;114.192;2022-10-22T03:57:08;27.10;97.30
41435;DHT22;27177;22.262;114.192;2022-10-22T03:59:40;27.10;97.60
41435;DHT22;27177;22.262;114.192;2022-10-22T04:02:07;27.20;97.60
41435;DHT22;27177;22.262;114.192;2022-10-22T04:04:35;27.10;97.30
41435;DHT22;27177;22.262;114.192;2022-10-22T04:07:02;27.20;97.70
41435;DHT22;27177;22.262;114.192;2022-10-22T04:09:33;27.20;98.00
41435;DHT22;27177;22.262;114.192;2022-10-22T04:12:00;27.30;97.70
41435;DHT22;27177;22.262;114.192;2022-10-22T04:14:27;27.40;97.70
41435;DHT22;27177;22.262;114.192;2022-10-22T04:16:54;27.40;97.60
41435;DHT22;27177;22.262;114.192;2022-10-22T04:19:20;27.60;97.90
41435;DHT22;27177;22.262;114.192;2022-10-22T04:21:47;27.70;97.80
41435;DHT22;27177;22.262;114.192;2022-10-22T04:24:14;27.60;97.80
41435;DHT22;27177;22.262;114.192;2022-10-22T04:26:41;27.70;97.30
41435;DHT22;27177;22.262;114.192;2022-10-22T04:29:27;27.70;97.00
41435;DHT22;27177;22.262;114.192;2022-10-22T04:31:53;27.70;97.60
41435;DHT22;27177;22.262;114.192;2022-10-22T04:34:20;27.80;97.30
41435;DHT22;27177;22.262;114.192;2022-10-22T04:36:47;27.80;97.80
41435;DHT22;27177;22.262;114.192;2022-10-22T04:39:14;27.90;97.40
41435;DHT22;27177;22.262;114.192;2022-10-22T04:41:41;27.90;97.60
41435;DHT22;27177;22.262;114.192;2022-10-22T04:44:10;27.90;97.40
41435;DHT22;27177;22.262;114.192;2022-10-22T04:46:37;28.00;97.80
41435;DHT22;27177;22.262;114.192;2022-10-22T04:49:04;28.00;97.80
41435;DHT22;27177;22.262;114.192;2022-10-22T04:51:31;28.00;97.60
41435;DHT22;27177;22.262;114.192;2022-10-22T04:53:58;28.00;97.70
41435;DHT22;27177;22.262;114.192;2022-10-22T04:56:27;28.10;97.90
41435;DHT22;27177;22.262;114.192;2022-10-22T05:01:32;28.00;97.60
41435;DHT22;27177;22.262;114.192;2022-10-22T05:04:01;27.80;97.30
41435;DHT22;27177;22.262;114.192;2022-10-22T05:06:29;27.80;97.90
41435;DHT22;27177;22.262;114.192;2022-10-22T05:08:59;27.80;98.00
41435;DHT22;27177;22.262;114.192;2022-10-22T05:11:30;27.90;97.70
41435;DHT22;27177;22.262;114.192;2022-10-22T05:13:59;27.90;97.80
41435;DHT22;27177;22.262;114.192;2022-10-22T05:16:28;27.90;98.00
41435;DHT22;27177;22.262;114.192;2022-10-22T05:18:56;27.90;98.10
41435;DHT22;27177;22.262;114.192;2022-10-22T05:21:24;28.00;98.10
41435;DHT22;27177;22.262;114.192;2022-10-22T05:23:53;28.10;98.00
41435;DHT22;27177;22.262;114.192;2022-10-22T05:26:21;28.10;98.10
41435;DHT22;27177;22.262;114.192;2022-10-22T05:28:50;28.10;97.70
41435;DHT22;27177;22.262;114.192;2022-10-22T05:31:18;28.10;97.90
41435;DHT22;27177;22.262;114.192;2022-10-22T05:33:46;28.10;97.70
41435;DHT22;27177;22.262;114.192;2022-10-22T05:36:17;28.20;98.30
41435;DHT22;27177;22.262;114.192;2022-10-22T05:38:45;28.20;98.20
41435;DHT22;27177;22.262;114.192;2022-10-22T05:41:20;28.20;98.20
41435;DHT22;27177;22.262;114.192;2022-10-22T05:43:47;28.10;98.10
41435;DHT22;27177;22.262;114.192;2022-10-22T05:46:17;28.20;97.90
41435;DHT22;27177;22.262;114.192;2022-10-22T05:48:47;28.10;98.10
41435;DHT22;27177;22.262;114.192;2022-10-22T05:51:14;28.10;98.20
41435;DHT22;27177;22.262;114.192;2022-10-22T05:53:42;28.10;98.70
41435;DHT22;27177;22.262;114.192;2022-10-22T05:56:14;28.20;98.30
41435;DHT22;27177;22.262;114.192;2022-10-22T05:58:42;28.30;98.70
41435;DHT22;27177;22.262;114.192;2022-10-22T06:01:15;28.30;98.70
41435;DHT22;27177;22.262;114.192;2022-10-22T06:03:44;28.30;98.30
41435;DHT22;27177;22.262;114.192;2022-10-22T06:08:48;28.30;98.00
41435;DHT22;27177;22.262;114.192;2022-10-22T06:11:17;28.40;98.40
41435;DHT22;27177;22.262;114.192;2022-10-22T06:13:44;28.50;98.40
41435;DHT22;27177;22.262;114.192;2022-10-22T06:16:12;28.60;98.50
41435;DHT22;27177;22.262;114.192;2022-10-22T06:18:40;28.70;98.40
41435;DHT22;27177;22.262;114.192;2022-10-22T06:21:11;28.70;98.60
41435;DHT22;27177;22.262;114.192;2022-10-22T06:23:39;28.60;97.80
41435;DHT22;27177;22.262;114.192;2022-10-22T06:26:08;28.50;98.10
41435;DHT22;27177;22.262;114.192;2022-10-22T06:28:36;28.50;98.10
41435;DHT22;27177;22.262;114.192;2022-10-22T06:31:04;28.50;98.10
41435;DHT22;27177;22.262;114.192;2022-10-22T06:33:32;28.50;98.20
41435;DHT22;27177;22.262;114.192;2022-10-22T06:36:07;28.50;98.70
41435;DHT22;27177;22.262;114.192;2022-10-22T06:38:34;28.50;98.50
41435;DHT22;27177;22.262;114.192;2022-10-22T06:41:03;28.60;98.70
41435;DHT22;27177;22.262;114.192;2022-10-22T06:43:30;28.60;98.60
41435;DHT22;27177;22.262;114.192;2022-10-22T06:46:01;28.50;98.80
41435;DHT22;27177;22.262;114.192;2022-10-22T06:48:29;28.50;98.70
41435;DHT22;27177;22.262;114.192;2022-10-22T06:51:01;28.60;99.00
41435;DHT22;27177;22.262;114.192;2022-10-22T06:53:29;28.50;98.60
41435;DHT22;27177;22.262;114.192;2022-10-22T06:55:56;28.50;99.10
41435;DHT22;27177;22.262;114.192;2022-10-22T06:58:23;28.50;99.40
41435;DHT22;27177;22.262;114.192;2022-10-22T07:01:20;28.50;99.10
41435;DHT22;27177;22.262;114.192;2022-10-22T07:03:48;28.50;99.50
41435;DHT22;27177;22.262;114.192;2022-10-22T07:06:16;28.40;99.60
41435;DHT22;27177;22.262;114.192;2022-10-22T07:08:43;28.40;98.90
41435;DHT22;27177;22.262;114.192;2022-10-22T07:11:16;28.40;99.40
41435;DHT22;27177;22.262;114.192;2022-10-22T07:13:44;28.30;99.10
41435;DHT22;27177;22.262;114.192;2022-10-22T07:16:12;28.30;99.60
41435;DHT22;27177;22.262;114.192;2022-10-22T07:18:40;28.20;99.30
41435;DHT22;27177;22.262;114.192;2022-10-22T07:21:08;28.20;99.80
41435;DHT22;27177;22.262;114.192;2022-10-22T07:23:36;28.20;99.90
41435;DHT22;27177;22.262;114.192;2022-10-22T07:26:04;28.20;99.90
41435;DHT22;27177;22.262;114.192;2022-10-22T07:28:35;28.20;99.60
41435;DHT22;27177;22.262;114.192;2022-10-22T07:31:09;28.10;99.90
41435;DHT22;27177;22.262;114.192;2022-10-22T07:33:37;28.00;99.90
41435;DHT22;27177;22.262;114.192;2022-10-22T07:36:07;28.00;99.90
41435;DHT22;27177;22.262;114.192;2022-10-22T07:38:35;27.90;99.90
41435;DHT22;27177;22.262;114.192;2022-10-22T07:41:03;27.80;99.90
41435;DHT22;27177;22.262;114.192;2022-10-22T07:43:30;27.80;99.90
41435;DHT22;27177;22.262;114.192;2022-10-22T07:45:59;27.70;99.90
41435;DHT22;27177;22.262;114.192;2022-10-22T07:48:28;27.70;99.90
41435;DHT22;27177;22.262;114.192;2022-10-22T07:50:55;27.60;99.90
41435;DHT22;27177;22.262;114.192;2022-10-22T07:53:23;27.60;99.90
41435;DHT22;27177;22.262;114.192;2022-10-22T07:55:51;27.60;99.90
41435;DHT22;27177;22.262;114.192;2022-10-22T07:58:19;27.50;99.90
41435;DHT22;27177;22.262;114.192;2022-10-22T08:00:47;27.60;99.90
41435;DHT22;27177;22.262;114.192;2022-10-22T08:03:16;27.60;99.90
41435;DHT22;27177;22.262;114.192;2022-10-22T08:05:43;27.60;99.90
41435;DHT22;27177;22.262;114.192;2022-10-22T08:08:12;27.50;99.90
41435;DHT22;27177;22.262;114.192;2022-10-22T08:10:39;27.50;99.90
41435;DHT22;27177;22.262;114.192;2022-10-22T08:13:07;27.50;99.90
41435;DHT22;27177;22.262;114.192;2022-10-22T08:15:34;27.50;99.90
41435;DHT22;27177;22.262;114.192;2022-10-22T08:18:01;27.50;99.90
41435;DHT22;27177;22.262;114.192;2022-10-22T08:20:28;27.40;99.90
41435;DHT22;27177;22.262;114.192;2022-10-22T08:22:55;27.40;99.90
41435;DHT22;27177;22.262;114.192;2022-10-22T08:25:23;27.40;99.90
41435;DHT22;27177;22.262;114.192;2022-10-22T08:27:50;27.40;99.90
41435;DHT22;27177;22.262;114.192;2022-10-22T08:30:17;27.30;99.90
41435;DHT22;27177;22.262;114.192;2022-10-22T08:32:45;27.30;99.90
41435;DHT22;27177;22.262;114.192;2022-10-22T08:35:12;27.20;99.90
41435;DHT22;27177;22.262;114.192;2022-10-22T08:37:39;27.20;99.90
41435;DHT22;27177;22.262;114.192;2022-10-22T08:40:06;27.10;99.90
41435;DHT22;27177;22.262;114.192;2022-10-22T08:45:11;27.00;99.90
41435;DHT22;27177;22.262;114.192;2022-10-22T08:50:45;26.80;99.90
41435;DHT22;27177;22.262;114.192;2022-10-22T08:53:15;26.70;99.90
41435;DHT22;27177;22.262;114.192;2022-10-22T08:55:43;26.70;99.90
41435;DHT22;27177;22.262;114.192;2022-10-22T09:00:53;26.50;99.90
41435;DHT22;27177;22.262;114.192;2022-10-22T09:08:30;26.40;99.90
41435;DHT22;27177;22.262;114.192;2022-10-22T09:13:40;26.30;99.90
41435;DHT22;27177;22.262;114.192;2022-10-22T09:24:24;26.30;99.90
41435;DHT22;27177;22.262;114.192;2022-10-22T09:26:52;26.30;99.90
41435;DHT22;27177;22.262;114.192;2022-10-22T09:29:22;26.20;99.90
41435;DHT22;27177;22.262;114.192;2022-10-22T09:31:49;26.20;99.90
41435;DHT22;27177;22.262;114.192;2022-10-22T09:34:20;26.30;99.90
41435;DHT22;27177;22.262;114.192;2022-10-22T09:36:47;26.30;99.90
41435;DHT22;27177;22.262;114.192;2022-10-22T09:39:26;26.30;99.90
41435;DHT22;27177;22.262;114.192;2022-10-22T09:41:53;26.40;99.90
41435;DHT22;27177;22.262;114.192;2022-10-22T09:44:20;26.50;99.90
41435;DHT22;27177;22.262;114.192;2022-10-22T09:46:47;26.40;99.90
41435;DHT22;27177;22.262;114.192;2022-10-22T09:49:23;26.50;99.90
41435;DHT22;27177;22.262;114.192;2022-10-22T09:51:58;26.50;99.90
41435;DHT22;27177;22.262;114.192;2022-10-22T09:57:05;26.50;99.90
41435;DHT22;27177;22.262;114.192;2022-10-22T09:59:38;26.50;99.90
41435;DHT22;27177;22.262;114.192;2022-10-22T10:02:10;26.50;99.90
41435;DHT22;27177;22.262;114.192;2022-10-22T10:04:51;26.50;99.90
41435;DHT22;27177;22.262;114.192;2022-10-22T10:07:23;26.50;99.90
41435;DHT22;27177;22.262;114.192;2022-10-22T10:09:51;26.50;99.90
41435;DHT22;27177;22.262;114.192;2022-10-22T10:12:45;26.50;99.90
41435;DHT22;27177;22.262;114.192;2022-10-22T10:15:28;26.50;99.90
41435;DHT22;27177;22.262;114.192;2022-10-22T10:30:07;26.20;99.90
41435;DHT22;27177;22.262;114.192;2022-10-22T10:49:35;26.00;99.90
41435;DHT22;27177;22.262;114.192;2022-10-22T11:00:19;25.90;99.90
41435;DHT22;27177;22.262;114.192;2022-10-22T11:05:33;25.80;99.90
41435;DHT22;27177;22.262;114.192;2022-10-22T11:08:23;25.70;99.90
41435;DHT22;27177;22.262;114.192;2022-10-22T11:14:02;25.60;99.90
41435;DHT22;27177;22.262;114.192;2022-10-22T11:16:34;25.60;99.90
41435;DHT22;27177;22.262;114.192;2022-10-22T11:19:12;25.50;99.90
41435;DHT22;27177;22.262;114.192;2022-10-22T11:22:04;25.50;99.90
41435;DHT22;27177;22.262;114.192;2022-10-22T11:24:45;25.40;99.90
41435;DHT22;27177;22.262;114.192;2022-10-22T11:27:21;25.50;99.90
41435;DHT22;27177;22.262;114.192;2022-10-22T11:29:55;25.50;99.90
41435;DHT22;27177;22.262;114.192;2022-10-22T11:32:25;25.40;99.90
41435;DHT22;27177;22.262;114.192;2022-10-22T11:34:58;25.40;99.90
41435;DHT22;27177;22.262;114.192;2022-10-22T11:37:31;25.40;99.90
41435;DHT22;27177;22.262;114.192;2022-10-22T11:40:36;25.40;99.90
41435;DHT22;27177;22.262;114.192;2022-10-22T11:43:08;25.50;99.90
41435;DHT22;27177;22.262;114.192;2022-10-22T11:45:41;25.50;99.90
41435;DHT22;27177;22.262;114.192;2022-10-22T11:48:17;25.50;99.90
41435;DHT22;27177;22.262;114.192;2022-10-22T11:50:51;25.40;99.90
41435;DHT22;27177;22.262;114.192;2022-10-22T11:53:37;25.50;99.90
41435;DHT22;27177;22.262;114.192;2022-10-22T11:56:22;25.50;99.90
41435;DHT22;27177;22.262;114.192;2022-10-22T11:58:50;25.50;99.90
41435;DHT22;27177;22.262;114.192;2022-10-22T12:01:46;25.50;99.90
41435;DHT22;27177;22.262;114.192;2022-10-22T12:04:39;25.40;99.90
41435;DHT22;27177;22.262;114.192;2022-10-22T12:07:47;25.40;99.90
41435;DHT22;27177;22.262;114.192;2022-10-22T12:10:21;25.50;99.90
41435;DHT22;27177;22.262;114.192;2022-10-22T12:12:57;25.50;99.90
41435;DHT22;27177;22.262;114.192;2022-10-22T12:15:26;25.50;99.90
41435;DHT22;27177;22.262;114.192;2022-10-22T12:17:59;25.50;99.90
41435;DHT22;27177;22.262;114.192;2022-10-22T12:20:27;25.40;99.90
41435;DHT22;27177;22.262;114.192;2022-10-22T12:22:57;25.40;99.90
41435;DHT22;27177;22.262;114.192;2022-10-22T12:25:29;25.40;99.90
41435;DHT22;27177;22.262;114.192;2022-10-22T12:27:58;25.30;99.90
41435;DHT22;27177;22.262;114.192;2022-10-22T12:30:31;25.30;99.90
41435;DHT22;27177;22.262;114.192;2022-10-22T12:33:03;25.30;99.90
41435;DHT22;27177;22.262;114.192;2022-10-22T12:35:33;25.30;99.90
41435;DHT22;27177;22.262;114.192;2022-10-22T12:38:20;25.30;99.90
41435;DHT22;27177;22.262;114.192;2022-10-22T12:40:49;25.30;99.90
41435;DHT22;27177;22.262;114.192;2022-10-22T12:43:29;25.30;99.90
41435;DHT22;27177;22.262;114.192;2022-10-22T12:45:58;25.30;99.90
41435;DHT22;27177;22.262;114.192;2022-10-22T12:48:30;25.40;99.90
41435;DHT22;27177;22.262;114.192;2022-10-22T12:51:01;25.50;99.90
41435;DHT22;27177;22.262;114.192;2022-10-22T12:53:30;25.50;99.90
41435;DHT22;27177;22.262;114.192;2022-10-22T12:56:06;25.50;99.90
41435;DHT22;27177;22.262;114.192;2022-10-22T12:58:56;25.40;99.90
41435;DHT22;27177;22.262;114.192;2022-10-22T13:01:26;25.40;99.90
41435;DHT22;27177;22.262;114.192;2022-10-22T13:04:13;25.40;99.90
41435;DHT22;27177;22.262;114.192;2022-10-22T13:12:11;25.30;99.90
41435;DHT22;27177;22.262;114.192;2022-10-22T13:14:44;25.30;99.90
41435;DHT22;27177;22.262;114.192;2022-10-22T13:17:39;25.30;99.90
41435;DHT22;27177;22.262;114.192;2022-10-22T13:20:19;25.20;99.90
41435;DHT22;27177;22.262;114.192;2022-10-22T13:22:57;25.20;99.90
41435;DHT22;27177;22.262;114.192;2022-10-22T13:25:32;25.10;99.90
41435;DHT22;27177;22.262;114.192;2022-10-22T13:28:20;25.10;99.90
41435;DHT22;27177;22.262;114.192;2022-10-22T13:30:57;25.00;99.90
41435;DHT22;27177;22.262;114.192;2022-10-22T13:33:29;25.00;99.90
41435;DHT22;27177;22.262;114.192;2022-10-22T13:35:58;25.00;99.90
41435;DHT22;27177;22.262;114.192;2022-10-22T13:38:26;24.90;99.90
41435;DHT22;27177;22.262;114.192;2022-10-22T13:40:54;24.80;99.90
41435;DHT22;27177;22.262;114.192;2022-10-22T13:43:21;24.80;99.90
41435;DHT22;27177;22.262;114.192;2022-10-22T13:45:52;24.80;99.90
41435;DHT22;27177;22.262;114.192;2022-10-22T13:48:19;24.80;99.90
41435;DHT22;27177;22.262;114.192;2022-10-22T13:50:48;24.80;99.90
41435;DHT22;27177;22.262;114.192;2022-10-22T13:53:17;24.80;99.90
41435;DHT22;27177;22.262;114.192;2022-10-22T13:55:48;24.80;99.90
41435;DHT22;27177;22.262;114.192;2022-10-22T13:58:18;24.70;99.90
41435;DHT22;27177;22.262;114.192;2022-10-22T14:00:47;24.70;99.90
41435;DHT22;27177;22.262;114.192;2022-10-22T14:03:20;24.70;99.90
41435;DHT22;27177;22.262;114.192;2022-10-22T14:05:48;24.70;99.90
41435;DHT22;27177;22.262;114.192;2022-10-22T14:08:19;24.70;99.90
41435;DHT22;27177;22.262;114.192;2022-10-22T14:10:47;24.70;99.90
41435;DHT22;27177;22.262;114.192;2022-10-22T14:13:16;24.70;99.90
41435;DHT22;27177;22.262;114.192;2022-10-22T14:15:45;24.80;99.90
41435;DHT22;27177;22.262;114.192;2022-10-22T14:18:25;24.80;99.90
41435;DHT22;27177;22.262;114.192;2022-10-22T14:20:56;24.80;99.90
41435;DHT22;27177;22.262;114.192;2022-10-22T14:23:28;24.80;99.90
41435;DHT22;27177;22.262;114.192;2022-10-22T14:25:56;24.80;99.90
41435;DHT22;27177;22.262;114.192;2022-10-22T14:28:23;24.70;99.90
41435;DHT22;27177;22.262;114.192;2022-10-22T14:30:50;24.70;99.90
41435;DHT22;27177;22.262;114.192;2022-10-22T14:33:20;24.70;99.90
41435;DHT22;27177;22.262;114.192;2022-10-22T14:35:50;24.70;99.90
41435;DHT22;27177;22.262;114.192;2022-10-22T14:38:17;24.70;99.90
41435;DHT22;27177;22.262;114.192;2022-10-22T14:40:44;24.70;99.90
41435;DHT22;27177;22.262;114.192;2022-10-22T14:43:21;24.70;99.90
41435;DHT22;27177;22.262;114.192;2022-10-22T14:45:48;24.70;99.90
41435;DHT22;27177;22.262;114.192;2022-10-22T14:48:15;24.70;99.90
41435;DHT22;27177;22.262;114.192;2022-10-22T14:50:43;24.70;99.90
41435;DHT22;27177;22.262;114.192;2022-10-22T14:53:11;24.70;99.90
41435;DHT22;27177;22.262;114.192;2022-10-22T14:55:39;24.70;99.90
41435;DHT22;27177;22.262;114.192;2022-10-22T14:58:07;24.70;99.90
41435;DHT22;27177;22.262;114.192;2022-10-22T15:00:34;24.70;99.90
41435;DHT22;27177;22.262;114.192;2022-10-22T15:03:02;24.80;99.90
41435;DHT22;27177;22.262;114.192;2022-10-22T15:05:29;24.70;99.90
41435;DHT22;27177;22.262;114.192;2022-10-22T15:07:55;24.70;99.90
41435;DHT22;27177;22.262;114.192;2022-10-22T15:10:24;24.70;99.90
41435;DHT22;27177;22.262;114.192;2022-10-22T15:12:52;24.80;99.90
41435;DHT22;27177;22.262;114.192;2022-10-22T15:15:19;24.70;99.90
41435;DHT22;27177;22.262;114.192;2022-10-22T15:17:46;24.70;99.90
41435;DHT22;27177;22.262;114.192;2022-10-22T15:20:12;24.70;99.90
41435;DHT22;27177;22.262;114.192;2022-10-22T15:22:39;24.70;99.90
41435;DHT22;27177;22.262;114.192;2022-10-22T15:25:07;24.70;99.90
41435;DHT22;27177;22.262;114.192;2022-10-22T15:27:35;24.70;99.90
41435;DHT22;27177;22.262;114.192;2022-10-22T15:30:02;24.70;99.90
41435;DHT22;27177;22.262;114.192;2022-10-22T15:32:29;24.70;99.90
41435;DHT22;27177;22.262;114.192;2022-10-22T15:34:59;24.80;99.90
41435;DHT22;27177;22.262;114.192;2022-10-22T15:37:30;25.00;99.90
41435;DHT22;27177;22.262;114.192;2022-10-22T15:39:58;25.00;99.90
41435;DHT22;27177;22.262;114.192;2022-10-22T15:42:25;25.20;99.90
41435;DHT22;27177;22.262;114.192;2022-10-22T15:44:57;25.30;99.90
41435;DHT22;27177;22.262;114.192;2022-10-22T15:47:24;25.30;99.90
41435;DHT22;27177;22.262;114.192;2022-10-22T15:49:55;25.40;99.90
41435;DHT22;27177;22.262;114.192;2022-10-22T15:52:22;25.30;99.90
41435;DHT22;27177;22.262;114.192;2022-10-22T15:54:49;25.40;99.90
41435;DHT22;27177;22.262;114.192;2022-10-22T15:57:16;25.30;99.90
41435;DHT22;27177;22.262;114.192;2022-10-22T15:59:43;25.30;99.90
41435;DHT22;27177;22.262;114.192;2022-10-22T16:02:10;25.20;99.90
41435;DHT22;27177;22.262;114.192;2022-10-22T16:04:38;25.10;99.90
41435;DHT22;27177;22.262;114.192;2022-10-22T16:07:05;25.10;99.90
41435;DHT22;27177;22.262;114.192;2022-10-22T16:09:32;25.10;99.90
41435;DHT22;27177;22.262;114.192;2022-10-22T16:11:59;25.00;99.90
41435;DHT22;27177;22.262;114.192;2022-10-22T16:14:26;25.00;99.90
41435;DHT22;27177;22.262;114.192;2022-10-22T16:16:55;25.00;99.90
41435;DHT22;27177;22.262;114.192;2022-10-22T16:19:23;25.00;99.90
41435;DHT22;27177;22.262;114.192;2022-10-22T16:21:51;25.00;99.90
41435;DHT22;27177;22.262;114.192;2022-10-22T16:24:19;25.00;99.90
41435;DHT22;27177;22.262;114.192;2022-10-22T16:26:47;25.00;99.90
41435;DHT22;27177;22.262;114.192;2022-10-22T16:29:15;25.10;99.90
41435;DHT22;27177;22.262;114.192;2022-10-22T16:31:42;25.10;99.90
41435;DHT22;27177;22.262;114.192;2022-10-22T16:34:11;25.20;99.90
41435;DHT22;27177;22.262;114.192;2022-10-22T16:36:38;25.10;99.90
41435;DHT22;27177;22.262;114.192;2022-10-22T16:39:06;25.20;99.90
41435;DHT22;27177;22.262;114.192;2022-10-22T16:41:33;25.20;99.90
41435;DHT22;27177;22.262;114.192;2022-10-22T16:44:02;25.20;99.90
41435;DHT22;27177;22.262;114.192;2022-10-22T16:46:30;25.20;99.90
41435;DHT22;27177;22.262;114.192;2022-10-22T16:48:58;25.20;99.90
41435;DHT22;27177;22.262;114.192;2022-10-22T16:51:27;25.30;99.90
41435;DHT22;27177;22.262;114.192;2022-10-22T16:53:55;25.30;99.90
41435;DHT22;27177;22.262;114.192;2022-10-22T16:56:23;25.20;99.90
41435;DHT22;27177;22.262;114.192;2022-10-22T16:58:53;25.30;99.90
41435;DHT22;27177;22.262;114.192;2022-10-22T17:01:23;25.30;99.90
41435;DHT22;27177;22.262;114.192;2022-10-22T17:03:55;25.20;99.90